METAR AND TAF INFORMATION
METAR FOR LEGR
ADDS - METARS form results

(0029 UTC 21 June 2021)
Data provider http://aviationweather.gov/metar/data/
 
METAR text: LEGR 210000Z AUTO 24006KT CAVOK 17/13 Q1015
Conditions at: LEGR (GRANADA AIRPORT , ES) observed 0000 UTC 21 June 2021
Temperature: 17.0°C (63°F)
Dewpoint: 13.0°C (55°F) [RH = 77%]
Pressure (altimeter): 29.97 inches Hg (1015.0 mb)
Winds: from the WSW (240 degrees) at 7 MPH (6 knots; 3.1 m/s)
Visibility: 6 or more miles (10+ km)
Ceiling: ceiling and visibility are OK
Clouds: unknown
Weather: no significant weather observed at this time

METAR text: LEGR 202330Z AUTO 23004KT CAVOK 17/13 Q1015
Conditions at: LEGR (GRANADA AIRPORT , ES) observed 2330 UTC 20 June 2021
Temperature: 17.0°C (63°F)
Dewpoint: 13.0°C (55°F) [RH = 77%]
Pressure (altimeter): 29.97 inches Hg (1015.0 mb)
Winds: from the SW (230 degrees) at 5 MPH (4 knots; 2.1 m/s)
Visibility: 6 or more miles (10+ km)
Ceiling: ceiling and visibility are OK
Clouds: unknown
Weather: no significant weather observed at this time

Forecast for: LEGR (GRANADA AIRPORT , ES)
Text: TAF LEGR 202300Z 2100/2124 25002KT 9999 FEW020 TX27/2115Z TN14/2105Z
Forecast period: 0000 to 1000 UTC 21 June 2021
Forecast type: FROM: standard forecast or significant change
Winds: from the WSW (250 degrees) at 2 MPH (2 knots; 1.0 m/s)
Visibility: 6 or more miles (10+ km)
Ceiling: at least 12,000 feet AGL
Clouds: few clouds at 2000 feet AGL
Weather: no significant weather forecast for this period
Text: BECMG 2110/2113 28012KT
Forecast period: 1000 UTC 21 June 2021 to 0000 UTC 22 June 2021
Forecast type: BECOMING: Conditions expected to become as follows by 1300 UTC 21 June 2021
Winds: from the W (280 degrees) at 14 MPH (12 knots; 6.2 m/s)
Visibility: 6 or more miles (10+ km)
Ceiling: at least 12,000 feet AGL
Clouds: few clouds at 2000 feet AGL
Weather: no significant weather forecast for this period

 AIRPORT MAP

 RUNWAY INFORMATION
Runway 09 Runway length 9514 ft Runway width 148 ft
Runway elevation 1842 ft Runway displaced threshold 0 ft Runway heading 90
Runway 27 Runway length 9514 ft Runway width 148 ft
Runway elevation 1860 ft Runway displaced threshold 0 ft Runway heading 270

 AIRPORT FREQUENCIES
Type GND Name GND Frequency 121.7 MHZ
Type TWR Name TWR Frequency 118.85 MHZ

 AIRPORT NEAR NAVIGATION AIDS
Type VOR-DME Name Granada Frequency 113400 KHZ





Powered by Virtual Airlines Manager

Maps by Rafael Santos